sensor_id;sensor_type;location;lat;lon;timestamp;pressure;altitude;pressure_sealevel;temperature;humidity
20228;BME280;12195;55.790;37.572;2023-05-22T00:01:15;100437.37;;;13.78;66.92
20228;BME280;12195;55.790;37.572;2023-05-22T00:04:00;100438.44;;;14.05;66.14
20228;BME280;12195;55.790;37.572;2023-05-22T00:06:33;100439.99;;;13.94;65.63
20228;BME280;12195;55.790;37.572;2023-05-22T00:09:15;100428.03;;;14.18;65.85
20228;BME280;12195;55.790;37.572;2023-05-22T00:12:00;100428.64;;;14.23;65.67
20228;BME280;12195;55.790;37.572;2023-05-22T00:14:33;100430.71;;;14.02;65.55
20228;BME280;12195;55.790;37.572;2023-05-22T00:17:15;100446.27;;;14.22;65.92
20228;BME280;12195;55.790;37.572;2023-05-22T00:19:49;100453.62;;;14.02;65.99
20228;BME280;12195;55.790;37.572;2023-05-22T00:22:31;100444.49;;;14.23;66.23
20228;BME280;12195;55.790;37.572;2023-05-22T00:25:17;100445.36;;;14.23;65.92
20228;BME280;12195;55.790;37.572;2023-05-22T00:28:03;100453.20;;;14.25;65.81
20228;BME280;12195;55.790;37.572;2023-05-22T00:30:36;100443.22;;;13.99;65.92
20228;BME280;12195;55.790;37.572;2023-05-22T00:33:21;100446.44;;;14.19;66.33
20228;BME280;12195;55.790;37.572;2023-05-22T00:35:54;100440.74;;;13.96;66.16
20228;BME280;12195;55.790;37.572;2023-05-22T00:38:36;100436.05;;;14.16;66.24
20228;BME280;12195;55.790;37.572;2023-05-22T00:41:20;100438.59;;;14.18;66.38
20228;BME280;12195;55.790;37.572;2023-05-22T00:43:53;100429.17;;;13.83;66.46
20228;BME280;12195;55.790;37.572;2023-05-22T00:46:37;100431.45;;;14.04;66.64
20228;BME280;12195;55.790;37.572;2023-05-22T00:49:10;100428.75;;;13.75;66.08
20228;BME280;12195;55.790;37.572;2023-05-22T00:51:54;100438.62;;;13.87;66.79
20228;BME280;12195;55.790;37.572;2023-05-22T00:54:42;100437.45;;;13.77;67.19
20228;BME280;12195;55.790;37.572;2023-05-22T00:57:25;100444.16;;;13.67;67.28
20228;BME280;12195;55.790;37.572;2023-05-22T00:59:58;100441.36;;;13.39;67.69
20228;BME280;12195;55.790;37.572;2023-05-22T01:02:41;100443.22;;;13.52;68.12
20228;BME280;12195;55.790;37.572;2023-05-22T01:05:14;100438.68;;;13.23;68.05
20228;BME280;12195;55.790;37.572;2023-05-22T01:07:59;100440.34;;;13.41;68.76
20228;BME280;12195;55.790;37.572;2023-05-22T01:10:41;100437.00;;;13.38;68.84
20228;BME280;12195;55.790;37.572;2023-05-22T01:16:25;100432.73;;;13.20;69.02
20228;BME280;12195;55.790;37.572;2023-05-22T01:19:34;100424.32;;;13.44;69.05
20228;BME280;12195;55.790;37.572;2023-05-22T01:28:40;100431.48;;;13.42;68.54
20228;BME280;12195;55.790;37.572;2023-05-22T01:33:59;100432.82;;;13.34;68.97
20228;BME280;12195;55.790;37.572;2023-05-22T01:36:33;100434.70;;;12.99;69.24
20228;BME280;12195;55.790;37.572;2023-05-22T01:39:19;100444.23;;;13.34;69.47
20228;BME280;12195;55.790;37.572;2023-05-22T01:41:54;100438.95;;;13.19;69.27
20228;BME280;12195;55.790;37.572;2023-05-22T01:44:40;100439.48;;;13.41;69.08
20228;BME280;12195;55.790;37.572;2023-05-22T01:47:13;100437.84;;;13.23;68.62
20228;BME280;12195;55.790;37.572;2023-05-22T01:49:55;100436.68;;;13.44;68.94
20228;BME280;12195;55.790;37.572;2023-05-22T01:55:51;100429.75;;;13.26;68.74
20228;BME280;12195;55.790;37.572;2023-05-22T02:01:33;100443.58;;;13.46;67.64
20228;BME280;12195;55.790;37.572;2023-05-22T02:04:19;100439.32;;;13.44;67.15
20228;BME280;12195;55.790;37.572;2023-05-22T02:07:02;100441.36;;;13.39;66.69
20228;BME280;12195;55.790;37.572;2023-05-22T02:09:45;100442.35;;;13.36;67.12
20228;BME280;12195;55.790;37.572;2023-05-22T02:12:31;100443.38;;;13.34;67.07
20228;BME280;12195;55.790;37.572;2023-05-22T02:15:07;100436.70;;;12.94;67.95
20228;BME280;12195;55.790;37.572;2023-05-22T02:17:49;100449.00;;;13.28;68.14
20228;BME280;12195;55.790;37.572;2023-05-22T02:20:23;100440.50;;;13.06;67.88
20228;BME280;12195;55.790;37.572;2023-05-22T02:23:05;100443.87;;;13.25;68.13
20228;BME280;12195;55.790;37.572;2023-05-22T02:25:48;100435.36;;;13.20;68.18
20228;BME280;12195;55.790;37.572;2023-05-22T02:28:20;100446.31;;;12.95;68.38
20228;BME280;12195;55.790;37.572;2023-05-22T02:31:04;100447.24;;;13.11;69.02
20228;BME280;12195;55.790;37.572;2023-05-22T02:33:37;100457.27;;;12.88;68.94
20228;BME280;12195;55.790;37.572;2023-05-22T02:36:19;100469.62;;;13.04;69.48
20228;BME280;12195;55.790;37.572;2023-05-22T02:38:53;100466.11;;;12.87;68.78
20228;BME280;12195;55.790;37.572;2023-05-22T02:41:37;100464.23;;;13.06;68.84
20228;BME280;12195;55.790;37.572;2023-05-22T02:44:21;100459.67;;;13.09;67.34
20228;BME280;12195;55.790;37.572;2023-05-22T02:46:54;100457.87;;;12.93;66.40
20228;BME280;12195;55.790;37.572;2023-05-22T02:49:38;100462.05;;;13.14;66.20
20228;BME280;12195;55.790;37.572;2023-05-22T02:52:23;100464.37;;;13.20;65.28
20228;BME280;12195;55.790;37.572;2023-05-22T02:54:55;100462.38;;;13.08;63.80
20228;BME280;12195;55.790;37.572;2023-05-22T02:57:37;100469.75;;;13.34;63.24
20228;BME280;12195;55.790;37.572;2023-05-22T03:00:10;100471.03;;;13.27;62.30
20228;BME280;12195;55.790;37.572;2023-05-22T03:02:53;100476.42;;;13.56;62.52
20228;BME280;12195;55.790;37.572;2023-05-22T03:05:37;100475.76;;;13.68;62.33
20228;BME280;12195;55.790;37.572;2023-05-22T03:08:21;100479.53;;;13.80;62.02
20228;BME280;12195;55.790;37.572;2023-05-22T03:11:06;100474.23;;;13.95;61.62
20228;BME280;12195;55.790;37.572;2023-05-22T03:13:39;100469.20;;;13.91;60.61
20228;BME280;12195;55.790;37.572;2023-05-22T03:16:24;100481.48;;;14.23;60.70
20228;BME280;12195;55.790;37.572;2023-05-22T03:19:09;100475.66;;;14.16;60.04
20228;BME280;12195;55.790;37.572;2023-05-22T03:21:52;100479.98;;;14.48;60.28
20228;BME280;12195;55.790;37.572;2023-05-22T03:24:26;100471.98;;;14.34;59.64
20228;BME280;12195;55.790;37.572;2023-05-22T03:27:13;100480.10;;;14.61;59.85
20228;BME280;12195;55.790;37.572;2023-05-22T03:29:45;100464.05;;;14.50;59.12
20228;BME280;12195;55.790;37.572;2023-05-22T03:32:27;100462.97;;;14.82;58.98
20228;BME280;12195;55.790;37.572;2023-05-22T03:35:01;100460.70;;;14.76;58.34
20228;BME280;12195;55.790;37.572;2023-05-22T03:37:44;100459.31;;;15.12;58.38
20228;BME280;12195;55.790;37.572;2023-05-22T03:40:26;100461.89;;;15.28;57.90
20228;BME280;12195;55.790;37.572;2023-05-22T03:42:59;100457.83;;;15.22;56.77
20228;BME280;12195;55.790;37.572;2023-05-22T03:45:41;100460.19;;;15.55;57.01
20228;BME280;12195;55.790;37.572;2023-05-22T03:48:14;100460.28;;;15.53;56.11
20228;BME280;12195;55.790;37.572;2023-05-22T03:50:59;100466.77;;;15.76;56.60
20228;BME280;12195;55.790;37.572;2023-05-22T03:53:31;100456.03;;;15.65;55.95
20228;BME280;12195;55.790;37.572;2023-05-22T03:56:15;100471.45;;;15.99;56.09
20228;BME280;12195;55.790;37.572;2023-05-22T03:58:49;100470.14;;;15.92;55.26
20228;BME280;12195;55.790;37.572;2023-05-22T04:01:33;100470.22;;;16.31;55.40
20228;BME280;12195;55.790;37.572;2023-05-22T04:04:07;100471.37;;;16.27;54.57
20228;BME280;12195;55.790;37.572;2023-05-22T04:06:53;100473.41;;;16.63;54.84
20228;BME280;12195;55.790;37.572;2023-05-22T04:09:30;100469.23;;;16.20;54.71
20228;BME280;12195;55.790;37.572;2023-05-22T04:12:12;100470.45;;;16.67;54.99
20228;BME280;12195;55.790;37.572;2023-05-22T04:14:56;100467.03;;;16.53;54.80
20228;BME280;12195;55.790;37.572;2023-05-22T04:17:32;100467.03;;;16.53;54.80
20228;BME280;12195;55.790;37.572;2023-05-22T04:20:18;100480.77;;;16.84;55.09
20228;BME280;12195;55.790;37.572;2023-05-22T04:22:52;100475.09;;;16.64;54.77
20228;BME280;12195;55.790;37.572;2023-05-22T04:25:24;100482.37;;;16.87;54.84
20228;BME280;12195;55.790;37.572;2023-05-22T04:28:08;100481.20;;;17.03;55.07
20228;BME280;12195;55.790;37.572;2023-05-22T04:30:42;100477.89;;;16.87;54.87
20228;BME280;12195;55.790;37.572;2023-05-22T04:33:25;100477.50;;;17.18;55.12
20228;BME280;12195;55.790;37.572;2023-05-22T04:35:59;100472.30;;;17.04;54.94
20228;BME280;12195;55.790;37.572;2023-05-22T04:38:42;100459.44;;;17.36;55.58
20228;BME280;12195;55.790;37.572;2023-05-22T04:41:17;100461.37;;;17.21;55.49
20228;BME280;12195;55.790;37.572;2023-05-22T04:44:04;100471.03;;;17.47;56.24
20228;BME280;12195;55.790;37.572;2023-05-22T04:46:37;100468.57;;;17.19;56.82
20228;BME280;12195;55.790;37.572;2023-05-22T04:49:20;100469.75;;;17.40;57.24
20228;BME280;12195;55.790;37.572;2023-05-22T04:51:54;100468.99;;;17.26;58.11
20228;BME280;12195;55.790;37.572;2023-05-22T04:54:41;100481.09;;;17.67;57.76
20228;BME280;12195;55.790;37.572;2023-05-22T04:57:15;100470.92;;;17.61;57.70
20228;BME280;12195;55.790;37.572;2023-05-22T04:59:48;100478.58;;;17.89;57.31
20228;BME280;12195;55.790;37.572;2023-05-22T05:02:32;100471.66;;;17.99;59.12
20228;BME280;12195;55.790;37.572;2023-05-22T05:05:16;100470.61;;;17.89;60.80
20228;BME280;12195;55.790;37.572;2023-05-22T05:08:00;100471.84;;;17.73;62.43
20228;BME280;12195;55.790;37.572;2023-05-22T05:10:33;100473.99;;;17.30;63.52
20228;BME280;12195;55.790;37.572;2023-05-22T05:13:06;100467.52;;;17.09;65.24
20228;BME280;12195;55.790;37.572;2023-05-22T05:15:50;100482.28;;;17.13;66.38
20228;BME280;12195;55.790;37.572;2023-05-22T05:18:23;100485.31;;;16.70;67.58
20228;BME280;12195;55.790;37.572;2023-05-22T05:21:05;100481.94;;;16.80;68.45
20228;BME280;12195;55.790;37.572;2023-05-22T05:23:38;100483.82;;;16.39;69.88
20228;BME280;12195;55.790;37.572;2023-05-22T05:26:23;100491.00;;;16.51;70.49
20228;BME280;12195;55.790;37.572;2023-05-22T05:29:09;100489.22;;;16.38;71.86
20228;BME280;12195;55.790;37.572;2023-05-22T05:31:57;100491.91;;;16.24;72.59
20228;BME280;12195;55.790;37.572;2023-05-22T05:34:45;100494.70;;;16.08;73.79
20228;BME280;12195;55.790;37.572;2023-05-22T05:37:44;100464.28;;;15.46;75.40
20228;BME280;12195;55.790;37.572;2023-05-22T05:40:18;100464.28;;;15.46;75.40
20228;BME280;12195;55.790;37.572;2023-05-22T05:43:04;100478.91;;;15.66;75.92
20228;BME280;12195;55.790;37.572;2023-05-22T05:45:52;100492.54;;;15.46;77.19
20228;BME280;12195;55.790;37.572;2023-05-22T05:48:25;100493.05;;;15.09;78.50
20228;BME280;12195;55.790;37.572;2023-05-22T05:51:09;100503.64;;;15.23;79.10
20228;BME280;12195;55.790;37.572;2023-05-22T05:53:55;100506.77;;;15.15;80.03
20228;BME280;12195;55.790;37.572;2023-05-22T05:56:29;100505.88;;;14.87;80.74
20228;BME280;12195;55.790;37.572;2023-05-22T05:59:13;100516.95;;;15.07;81.85
20228;BME280;12195;55.790;37.572;2023-05-22T06:02:12;100521.20;;;15.10;82.58
20228;BME280;12195;55.790;37.572;2023-05-22T06:04:45;100528.55;;;14.91;81.85
20228;BME280;12195;55.790;37.572;2023-05-22T06:07:32;100517.34;;;15.15;82.40
20228;BME280;12195;55.790;37.572;2023-05-22T06:10:06;100529.88;;;14.98;83.66
20228;BME280;12195;55.790;37.572;2023-05-22T06:12:50;100532.39;;;15.29;83.38
20228;BME280;12195;55.790;37.572;2023-05-22T06:15:24;100519.69;;;15.06;83.98
20228;BME280;12195;55.790;37.572;2023-05-22T06:18:09;100520.77;;;15.31;83.97
20228;BME280;12195;55.790;37.572;2023-05-22T06:20:42;100520.17;;;15.12;83.36
20228;BME280;12195;55.790;37.572;2023-05-22T06:23:26;100517.58;;;15.40;84.97
20228;BME280;12195;55.790;37.572;2023-05-22T06:26:28;100512.77;;;15.47;84.59
20228;BME280;12195;55.790;37.572;2023-05-22T06:29:01;100499.59;;;15.17;83.94
20228;BME280;12195;55.790;37.572;2023-05-22T06:31:46;100503.52;;;15.40;84.22
20228;BME280;12195;55.790;37.572;2023-05-22T06:34:19;100503.16;;;15.16;84.11
20228;BME280;12195;55.790;37.572;2023-05-22T06:36:52;100524.70;;;15.40;84.20
20228;BME280;12195;55.790;37.572;2023-05-22T06:39:40;100511.45;;;15.54;85.01
20228;BME280;12195;55.790;37.572;2023-05-22T06:42:27;100508.75;;;15.26;84.93
20228;BME280;12195;55.790;37.572;2023-05-22T06:45:15;100524.57;;;15.41;84.91
20228;BME280;12195;55.790;37.572;2023-05-22T06:48:02;100517.49;;;15.42;84.74
20228;BME280;12195;55.790;37.572;2023-05-22T06:50:36;100517.49;;;15.42;84.74
20228;BME280;12195;55.790;37.572;2023-05-22T06:53:19;100502.73;;;15.66;84.96
20228;BME280;12195;55.790;37.572;2023-05-22T06:56:05;100477.22;;;15.65;84.33
20228;BME280;12195;55.790;37.572;2023-05-22T06:58:58;100481.83;;;15.61;83.96
20228;BME280;12195;55.790;37.572;2023-05-22T07:01:35;100484.87;;;15.41;84.29
20228;BME280;12195;55.790;37.572;2023-05-22T07:04:21;100501.33;;;15.74;85.60
20228;BME280;12195;55.790;37.572;2023-05-22T07:07:09;100519.00;;;15.74;87.35
20228;BME280;12195;55.790;37.572;2023-05-22T07:09:42;100502.06;;;15.76;87.39
20228;BME280;12195;55.790;37.572;2023-05-22T07:12:27;100494.87;;;16.19;86.68
20228;BME280;12195;55.790;37.572;2023-05-22T07:15:00;100492.60;;;16.13;86.70
20228;BME280;12195;55.790;37.572;2023-05-22T07:17:44;100484.64;;;16.54;86.11
20228;BME280;12195;55.790;37.572;2023-05-22T07:20:17;100487.30;;;16.40;84.50
20228;BME280;12195;55.790;37.572;2023-05-22T07:23:09;100485.65;;;16.78;84.78
20228;BME280;12195;55.790;37.572;2023-05-22T07:25:42;100481.17;;;16.66;83.87
20228;BME280;12195;55.790;37.572;2023-05-22T07:28:26;100486.10;;;17.09;84.84
20228;BME280;12195;55.790;37.572;2023-05-22T07:31:13;100476.95;;;17.26;84.04
20228;BME280;12195;55.790;37.572;2023-05-22T07:33:47;100490.22;;;17.01;82.40
20228;BME280;12195;55.790;37.572;2023-05-22T07:36:33;100508.81;;;17.26;82.47
20228;BME280;12195;55.790;37.572;2023-05-22T07:39:06;100502.44;;;16.91;82.07
20228;BME280;12195;55.790;37.572;2023-05-22T07:41:53;100492.58;;;17.30;84.02
20228;BME280;12195;55.790;37.572;2023-05-22T07:44:29;100485.34;;;17.32;84.06
20228;BME280;12195;55.790;37.572;2023-05-22T07:47:15;100504.81;;;18.06;85.90
20228;BME280;12195;55.790;37.572;2023-05-22T07:49:48;100499.31;;;17.97;81.39
20228;BME280;12195;55.790;37.572;2023-05-22T07:52:34;100494.44;;;18.85;80.72
20228;BME280;12195;55.790;37.572;2023-05-22T07:55:16;100508.13;;;18.91;77.90
20228;BME280;12195;55.790;37.572;2023-05-22T07:58:00;100503.16;;;19.32;77.60
20228;BME280;12195;55.790;37.572;2023-05-22T08:00:36;100488.27;;;19.30;77.24
20228;BME280;12195;55.790;37.572;2023-05-22T08:03:20;100488.28;;;19.74;76.02
20228;BME280;12195;55.790;37.572;2023-05-22T08:06:06;100497.11;;;19.85;75.32
20228;BME280;12195;55.790;37.572;2023-05-22T08:08:50;100497.34;;;19.93;74.71
20228;BME280;12195;55.790;37.572;2023-05-22T08:11:25;100492.05;;;19.71;73.28
20228;BME280;12195;55.790;37.572;2023-05-22T08:14:10;100507.16;;;20.15;73.48
20228;BME280;12195;55.790;37.572;2023-05-22T08:16:43;100504.24;;;19.96;72.16
20228;BME280;12195;55.790;37.572;2023-05-22T08:19:25;100516.66;;;20.39;72.56
20228;BME280;12195;55.790;37.572;2023-05-22T08:21:58;100509.69;;;20.27;72.44
20228;BME280;12195;55.790;37.572;2023-05-22T08:24:42;100508.48;;;20.84;73.52
20228;BME280;12195;55.790;37.572;2023-05-22T08:27:15;100513.58;;;20.87;70.46
20228;BME280;12195;55.790;37.572;2023-05-22T08:30:00;100505.78;;;21.36;68.99
20228;BME280;12195;55.790;37.572;2023-05-22T08:32:36;100504.23;;;21.13;66.96
20228;BME280;12195;55.790;37.572;2023-05-22T08:35:20;100502.49;;;21.53;66.42
20228;BME280;12195;55.790;37.572;2023-05-22T08:37:53;100502.73;;;21.20;66.33
20228;BME280;12195;55.790;37.572;2023-05-22T08:40:37;100504.36;;;21.62;68.27
20228;BME280;12195;55.790;37.572;2023-05-22T08:43:23;100507.21;;;21.70;68.31
20228;BME280;12195;55.790;37.572;2023-05-22T08:48:40;100490.55;;;21.87;65.90
20228;BME280;12195;55.790;37.572;2023-05-22T08:51:27;100492.05;;;21.70;64.92
20228;BME280;12195;55.790;37.572;2023-05-22T08:54:04;100501.43;;;21.14;66.72
20228;BME280;12195;55.790;37.572;2023-05-22T08:56:49;100492.06;;;21.50;69.00
20228;BME280;12195;55.790;37.572;2023-05-22T08:59:24;100481.98;;;21.33;67.90
20228;BME280;12195;55.790;37.572;2023-05-22T09:02:09;100483.38;;;21.87;68.08
20228;BME280;12195;55.790;37.572;2023-05-22T09:04:44;100483.52;;;21.86;65.52
20228;BME280;12195;55.790;37.572;2023-05-22T09:07:28;100472.11;;;22.52;65.83
20228;BME280;12195;55.790;37.572;2023-05-22T09:10:01;100464.20;;;22.41;59.59
20228;BME280;12195;55.790;37.572;2023-05-22T09:12:35;100459.28;;;22.65;59.97
20228;BME280;12195;55.790;37.572;2023-05-22T09:15:17;100461.22;;;23.20;59.58
20228;BME280;12195;55.790;37.572;2023-05-22T09:17:51;100454.73;;;22.94;57.10
20228;BME280;12195;55.790;37.572;2023-05-22T09:20:37;100467.61;;;23.46;57.55
20228;BME280;12195;55.790;37.572;2023-05-22T09:23:13;100460.05;;;23.32;54.30
20228;BME280;12195;55.790;37.572;2023-05-22T09:25:59;100472.36;;;23.88;56.39
20228;BME280;12195;55.790;37.572;2023-05-22T09:28:36;100470.62;;;23.70;53.69
20228;BME280;12195;55.790;37.572;2023-05-22T09:31:08;100464.64;;;23.76;52.81
20228;BME280;12195;55.790;37.572;2023-05-22T09:33:53;100475.51;;;24.11;54.71
20228;BME280;12195;55.790;37.572;2023-05-22T09:36:41;100471.14;;;24.10;55.04
20228;BME280;12195;55.790;37.572;2023-05-22T09:39:13;100471.16;;;23.73;52.49
20228;BME280;12195;55.790;37.572;2023-05-22T09:41:59;100468.84;;;24.15;54.38
20228;BME280;12195;55.790;37.572;2023-05-22T09:44:32;100465.31;;;23.87;54.68
20228;BME280;12195;55.790;37.572;2023-05-22T09:47:17;100466.50;;;24.47;56.33
20228;BME280;12195;55.790;37.572;2023-05-22T09:50:04;100459.74;;;24.43;54.62
20228;BME280;12195;55.790;37.572;2023-05-22T09:52:50;100457.66;;;24.54;53.18
20228;BME280;12195;55.790;37.572;2023-05-22T09:55:23;100452.82;;;24.23;51.70
20228;BME280;12195;55.790;37.572;2023-05-22T09:58:08;100457.31;;;24.67;51.79
20228;BME280;12195;55.790;37.572;2023-05-22T10:00:43;100454.88;;;24.29;51.25
20228;BME280;12195;55.790;37.572;2023-05-22T10:03:30;100460.74;;;24.77;52.20
20228;BME280;12195;55.790;37.572;2023-05-22T10:06:05;100456.30;;;23.79;51.08
20228;BME280;12195;55.790;37.572;2023-05-22T10:08:43;100448.75;;;24.19;50.01
20228;BME280;12195;55.790;37.572;2023-05-22T10:11:29;100451.44;;;24.89;51.70
20228;BME280;12195;55.790;37.572;2023-05-22T10:14:03;100442.94;;;24.76;50.19
20228;BME280;12195;55.790;37.572;2023-05-22T10:16:49;100444.70;;;25.28;49.47
20228;BME280;12195;55.790;37.572;2023-05-22T10:19:35;100447.39;;;24.67;50.08
20228;BME280;12195;55.790;37.572;2023-05-22T10:22:11;100437.55;;;24.58;47.51
20228;BME280;12195;55.790;37.572;2023-05-22T10:24:58;100439.64;;;25.08;47.80
20228;BME280;12195;55.790;37.572;2023-05-22T10:27:32;100431.13;;;24.69;47.79
20228;BME280;12195;55.790;37.572;2023-05-22T10:33:17;100446.15;;;24.79;49.09
20228;BME280;12195;55.790;37.572;2023-05-22T10:36:02;100443.09;;;24.22;48.75
20228;BME280;12195;55.790;37.572;2023-05-22T10:39:07;100442.70;;;24.52;49.60
20228;BME280;12195;55.790;37.572;2023-05-22T10:41:38;100449.61;;;24.19;49.38
20228;BME280;12195;55.790;37.572;2023-05-22T10:44:24;100444.08;;;24.56;49.78
20228;BME280;12195;55.790;37.572;2023-05-22T10:46:56;100429.70;;;23.68;49.62
20228;BME280;12195;55.790;37.572;2023-05-22T10:49:45;100437.13;;;24.63;49.37
20228;BME280;12195;55.790;37.572;2023-05-22T10:52:21;100434.81;;;24.68;47.05
20228;BME280;12195;55.790;37.572;2023-05-22T10:55:08;100437.45;;;25.29;47.39
20228;BME280;12195;55.790;37.572;2023-05-22T10:57:41;100429.75;;;25.08;45.79
20228;BME280;12195;55.790;37.572;2023-05-22T11:00:27;100434.03;;;25.52;46.26
20228;BME280;12195;55.790;37.572;2023-05-22T11:03:04;100424.88;;;25.12;45.89
20228;BME280;12195;55.790;37.572;2023-05-22T11:05:52;100432.20;;;25.53;46.77
20228;BME280;12195;55.790;37.572;2023-05-22T11:08:36;100430.56;;;25.08;47.49
20228;BME280;12195;55.790;37.572;2023-05-22T11:11:25;100424.64;;;25.56;46.18
20228;BME280;12195;55.790;37.572;2023-05-22T11:14:01;100415.63;;;25.65;45.29
20228;BME280;12195;55.790;37.572;2023-05-22T11:16:46;100410.75;;;26.34;46.50
20228;BME280;12195;55.790;37.572;2023-05-22T11:19:21;100413.81;;;26.47;43.53
20228;BME280;12195;55.790;37.572;2023-05-22T11:22:05;100416.63;;;27.18;43.74
20228;BME280;12195;55.790;37.572;2023-05-22T11:24:39;100402.48;;;26.20;43.70
20228;BME280;12195;55.790;37.572;2023-05-22T11:27:23;100413.77;;;27.19;43.98
20228;BME280;12195;55.790;37.572;2023-05-22T11:29:57;100403.73;;;26.81;42.49
20228;BME280;12195;55.790;37.572;2023-05-22T11:32:44;100402.67;;;27.22;43.53
20228;BME280;12195;55.790;37.572;2023-05-22T11:35:20;100391.42;;;26.87;43.05
20228;BME280;12195;55.790;37.572;2023-05-22T11:38:04;100405.44;;;27.53;43.18
20228;BME280;12195;55.790;37.572;2023-05-22T11:40:37;100391.08;;;26.42;44.38
20228;BME280;12195;55.790;37.572;2023-05-22T11:43:29;100396.20;;;27.39;42.94
20228;BME280;12195;55.790;37.572;2023-05-22T11:46:07;100393.27;;;26.86;42.49
20228;BME280;12195;55.790;37.572;2023-05-22T11:48:53;100403.84;;;27.12;44.04
20228;BME280;12195;55.790;37.572;2023-05-22T11:51:27;100399.10;;;27.14;43.20
20228;BME280;12195;55.790;37.572;2023-05-22T11:54:12;100397.56;;;28.35;41.74
20228;BME280;12195;55.790;37.572;2023-05-22T11:56:45;100382.87;;;29.41;38.44
20228;BME280;12195;55.790;37.572;2023-05-22T11:59:28;100381.09;;;31.71;36.46
20228;BME280;12195;55.790;37.572;2023-05-22T12:02:01;100363.34;;;32.67;32.51
20228;BME280;12195;55.790;37.572;2023-05-22T12:04:36;100366.11;;;33.70;30.61
20228;BME280;12195;55.790;37.572;2023-05-22T12:07:08;100352.87;;;34.73;29.30
20228;BME280;12195;55.790;37.572;2023-05-22T12:09:41;100368.84;;;36.50;32.37
20228;BME280;12195;55.790;37.572;2023-05-22T12:12:26;100353.02;;;37.56;28.47
20228;BME280;12195;55.790;37.572;2023-05-22T12:15:11;100360.48;;;38.11;27.79
20228;BME280;12195;55.790;37.572;2023-05-22T12:17:56;100345.48;;;38.80;26.80
20228;BME280;12195;55.790;37.572;2023-05-22T12:20:43;100354.85;;;39.98;25.51
20228;BME280;12195;55.790;37.572;2023-05-22T12:23:23;100349.39;;;40.03;22.10
20228;BME280;12195;55.790;37.572;2023-05-22T12:26:11;100341.68;;;41.98;22.72
20228;BME280;12195;55.790;37.572;2023-05-22T12:28:44;100335.22;;;41.72;20.04
20228;BME280;12195;55.790;37.572;2023-05-22T12:31:29;100339.73;;;43.33;20.63
20228;BME280;12195;55.790;37.572;2023-05-22T12:34:05;100323.75;;;42.95;18.72
20228;BME280;12195;55.790;37.572;2023-05-22T12:36:47;100328.23;;;44.57;19.41
20228;BME280;12195;55.790;37.572;2023-05-22T12:39:20;100311.51;;;43.41;18.51
20228;BME280;12195;55.790;37.572;2023-05-22T12:42:03;100320.56;;;44.44;19.53
20228;BME280;12195;55.790;37.572;2023-05-22T12:44:38;100307.24;;;43.64;18.18
20228;BME280;12195;55.790;37.572;2023-05-22T12:47:22;100304.59;;;45.64;18.41
20228;BME280;12195;55.790;37.572;2023-05-22T12:50:07;100303.40;;;46.25;17.55
20228;BME280;12195;55.790;37.572;2023-05-22T12:52:51;100307.02;;;46.26;17.50
20228;BME280;12195;55.790;37.572;2023-05-22T12:55:34;100303.19;;;46.40;17.39
20228;BME280;12195;55.790;37.572;2023-05-22T12:58:07;100278.73;;;45.45;16.15
20228;BME280;12195;55.790;37.572;2023-05-22T13:00:51;100285.86;;;46.75;16.78
20228;BME280;12195;55.790;37.572;2023-05-22T13:03:35;100286.52;;;46.86;16.79
20228;BME280;12195;55.790;37.572;2023-05-22T13:06:08;100271.50;;;45.67;16.76
20228;BME280;12195;55.790;37.572;2023-05-22T13:08:51;100278.69;;;46.42;16.74
20228;BME280;12195;55.790;37.572;2023-05-22T13:11:24;100260.14;;;45.45;15.90
20228;BME280;12195;55.790;37.572;2023-05-22T13:14:08;100274.05;;;46.01;17.05
20228;BME280;12195;55.790;37.572;2023-05-22T13:16:40;100266.93;;;43.91;17.13
20228;BME280;12195;55.790;37.572;2023-05-22T13:19:25;100270.52;;;44.88;18.43
20228;BME280;12195;55.790;37.572;2023-05-22T13:21:58;100260.08;;;43.84;17.47
20228;BME280;12195;55.790;37.572;2023-05-22T13:24:40;100261.69;;;45.33;17.35
20228;BME280;12195;55.790;37.572;2023-05-22T13:27:15;100251.42;;;45.33;16.14
20228;BME280;12195;55.790;37.572;2023-05-22T13:29:57;100253.97;;;47.13;15.61
20228;BME280;12195;55.790;37.572;2023-05-22T13:32:35;100236.05;;;46.47;14.34
20228;BME280;12195;55.790;37.572;2023-05-22T13:35:19;100246.98;;;47.65;14.79
20228;BME280;12195;55.790;37.572;2023-05-22T13:37:52;100224.34;;;45.44;15.45
20228;BME280;12195;55.790;37.572;2023-05-22T13:40:35;100234.59;;;46.49;15.79
20228;BME280;12195;55.790;37.572;2023-05-22T13:43:08;100220.30;;;45.55;14.54
20228;BME280;12195;55.790;37.572;2023-05-22T13:45:50;100225.65;;;46.52;14.54
20228;BME280;12195;55.790;37.572;2023-05-22T13:48:23;100219.22;;;44.85;14.57
20228;BME280;12195;55.790;37.572;2023-05-22T13:50:55;100207.47;;;44.12;15.32
20228;BME280;12195;55.790;37.572;2023-05-22T13:53:39;100210.74;;;44.48;15.84
20228;BME280;12195;55.790;37.572;2023-05-22T13:56:12;100198.05;;;42.53;16.04
20228;BME280;12195;55.790;37.572;2023-05-22T13:58:56;100203.27;;;42.54;17.20
20228;BME280;12195;55.790;37.572;2023-05-22T14:01:29;100202.19;;;40.47;17.63
20228;BME280;12195;55.790;37.572;2023-05-22T14:04:14;100211.70;;;40.29;18.79
20228;BME280;12195;55.790;37.572;2023-05-22T14:06:47;100212.22;;;37.95;19.83
20228;BME280;12195;55.790;37.572;2023-05-22T14:09:31;100221.05;;;37.52;21.10
20228;BME280;12195;55.790;37.572;2023-05-22T14:12:03;100222.70;;;35.57;22.94